createdAt,value
2023-03-15T08:55:14.441Z,99597.65
2023-03-15T08:57:44.877Z,99599.17
2023-03-15T09:00:20.442Z,99589.33
2023-03-15T09:02:55.296Z,99593.49
2023-03-15T09:05:24.803Z,99587.33
2023-03-15T09:07:56.149Z,99586.45
2023-03-15T09:10:24.695Z,99590.91
2023-03-15T09:12:55.762Z,99597.73
2023-03-15T09:15:29.245Z,99598.80
2023-03-15T09:17:57.842Z,99586.88
2023-03-15T09:20:28.403Z,99586.67
2023-03-15T09:23:01.102Z,99589.83
2023-03-15T09:25:29.944Z,99586.86
2023-03-15T09:27:58.270Z,99582.80
2023-03-15T09:30:27.191Z,99582.45
2023-03-15T09:32:56.048Z,99574.98
2023-03-15T09:35:24.351Z,99573.55
2023-03-15T09:37:53.623Z,99571.43
2023-03-15T09:40:26.289Z,99578.52
2023-03-15T09:43:02.772Z,99575.89
2023-03-15T09:45:43.540Z,99561.16
2023-03-15T09:48:18.054Z,99556.82
2023-03-15T09:50:49.606Z,99551.13
2023-03-15T09:53:32.413Z,99560.63
2023-03-15T09:56:00.641Z,99552.44
2023-03-15T09:58:35.463Z,99539.73
2023-03-15T10:01:06.366Z,99542.14
2023-03-15T10:03:52.077Z,99544.45
2023-03-15T10:06:36.620Z,99535.98
2023-03-15T10:09:16.003Z,99521.96
2023-03-15T10:12:15.171Z,99529.95
2023-03-15T10:15:08.720Z,99526.42
2023-03-15T10:17:59.027Z,99528.77
2023-03-15T10:20:30.081Z,99526.05
2023-03-15T10:23:11.788Z,99523.17
2023-03-15T10:25:40.015Z,99513.61
2023-03-15T10:28:09.993Z,99502.70
2023-03-15T10:30:39.652Z,99499.38
2023-03-15T10:33:16.011Z,99501.77
2023-03-15T10:35:44.671Z,99502.90
2023-03-15T10:38:18.370Z,99501.02
2023-03-15T10:41:06.468Z,99509.16
2023-03-15T10:43:37.503Z,99506.98
2023-03-15T10:46:10.126Z,99504.83
2023-03-15T10:48:41.915Z,99500.47
2023-03-15T10:51:18.242Z,99486.68
2023-03-15T10:53:57.332Z,99491.55
2023-03-15T10:56:31.316Z,99475.17
2023-03-15T10:59:12.355Z,99472.05
2023-03-15T11:01:41.838Z,99475.74
2023-03-15T11:04:21.626Z,99472.37
2023-03-15T11:06:59.215Z,99474.49
2023-03-15T11:09:27.682Z,99469.38
2023-03-15T11:12:00.237Z,99473.50
2023-03-15T11:14:39.314Z,99474.98
2023-03-15T11:17:12.170Z,99467.83
2023-03-15T11:19:42.432Z,99452.86
2023-03-15T11:22:11.478Z,99450.33
2023-03-15T11:24:40.802Z,99446.23
2023-03-15T11:27:16.858Z,99449.59
2023-03-15T11:29:55.985Z,99454.09
2023-03-15T11:32:29.408Z,99464.23
2023-03-15T11:35:13.670Z,99470.55
2023-03-15T11:38:06.267Z,99473.00
2023-03-15T11:40:39.169Z,99468.17
2023-03-15T11:43:18.608Z,99466.19
2023-03-15T11:46:09.772Z,99459.79
2023-03-15T11:48:50.641Z,99466.41
2023-03-15T11:51:19.258Z,99465.66
2023-03-15T11:53:52.643Z,99462.85
2023-03-15T11:56:26.291Z,99459.14
2023-03-15T11:59:05.076Z,99455.98
2023-03-15T12:01:33.981Z,99455.70
2023-03-15T12:04:30.594Z,99460.31
2023-03-15T12:07:03.537Z,99460.17
2023-03-15T12:09:37.390Z,99457.05
2023-03-15T12:12:39.751Z,99459.79
2023-03-15T12:15:14.187Z,99461.56
2023-03-15T12:17:54.101Z,99447.65
2023-03-15T12:20:40.866Z,99443.13
2023-03-15T12:23:21.281Z,99447.10
2023-03-15T12:26:05.528Z,99441.45
2023-03-15T12:28:37.697Z,99439.62
2023-03-15T12:31:08.453Z,99440.19
2023-03-15T12:33:51.448Z,99434.49
2023-03-15T12:36:40.298Z,99439.14
2023-03-15T12:39:17.704Z,99436.59
2023-03-15T12:41:48.974Z,99434.58
2023-03-15T12:44:33.288Z,99429.81
2023-03-15T12:47:05.678Z,99432.73
2023-03-15T12:49:37.713Z,99437.10
2023-03-15T12:52:15.929Z,99438.27
2023-03-15T12:54:47.248Z,99435.63
2023-03-15T12:57:22.325Z,99438.38
2023-03-15T12:59:52.110Z,99439.21
2023-03-15T13:02:42.089Z,99429.55
2023-03-15T13:05:21.448Z,99429.34
2023-03-15T13:07:54.104Z,99436.27
2023-03-15T13:10:51.895Z,99436.23
2023-03-15T13:13:39.004Z,99429.99
2023-03-15T13:16:26.507Z,99437.15
2023-03-15T13:19:23.180Z,99436.42
2023-03-15T13:22:54.980Z,99438.39
2023-03-15T13:25:31.107Z,99443.21
2023-03-15T13:28:00.431Z,99440.63
2023-03-15T13:30:39.058Z,99439.20
2023-03-15T13:33:26.875Z,99438.73
2023-03-15T13:36:28.249Z,99439.80
2023-03-15T13:38:57.775Z,99438.80
2023-03-15T13:41:29.965Z,99435.32
2023-03-15T13:43:59.470Z,99428.48
2023-03-15T13:46:33.895Z,99417.52
2023-03-15T13:49:02.820Z,99413.88
2023-03-15T13:51:35.380Z,99415.66
2023-03-15T13:54:13.770Z,99416.39
2023-03-15T13:57:06.468Z,99421.27
2023-03-15T13:59:36.177Z,99414.15
2023-03-15T14:02:05.363Z,99414.10
2023-03-15T14:04:36.428Z,99416.25
2023-03-15T14:07:26.388Z,99412.80
2023-03-15T14:10:17.181Z,99414.91
2023-03-15T14:12:46.407Z,99413.40
2023-03-15T14:15:22.627Z,99412.23
2023-03-15T14:18:02.739Z,99411.80
2023-03-15T14:20:39.677Z,99414.73
2023-03-15T14:23:13.538Z,99414.34
2023-03-15T14:25:45.242Z,99417.87
2023-03-15T14:28:16.261Z,99422.28
2023-03-15T14:30:56.080Z,99413.80
2023-03-15T14:33:31.950Z,99416.94
2023-03-15T14:36:05.437Z,99417.23
2023-03-15T14:38:39.138Z,99413.84
2023-03-15T14:41:27.324Z,99411.81
2023-03-15T14:43:56.878Z,99407.44
2023-03-15T14:46:27.884Z,99404.41
2023-03-15T14:48:57.183Z,99406.38
2023-03-15T14:51:25.976Z,99406.47
2023-03-15T14:53:56.409Z,99403.92
2023-03-15T14:56:25.499Z,99395.73
2023-03-15T14:58:56.867Z,99388.51
2023-03-15T15:01:27.185Z,99380.89
2023-03-15T15:04:01.818Z,99378.16
2023-03-15T15:06:32.084Z,99379.27
2023-03-15T15:09:01.663Z,99374.89
2023-03-15T15:11:30.295Z,99379.71
2023-03-15T15:14:04.545Z,99372.38
2023-03-15T15:16:33.253Z,99367.05
2023-03-15T15:19:01.621Z,99372.29
2023-03-15T15:21:34.163Z,99363.98
2023-03-15T15:24:04.838Z,99358.48
2023-03-15T15:26:33.880Z,99359.06
2023-03-15T15:29:03.202Z,99366.43
2023-03-15T15:31:35.354Z,99379.84
2023-03-15T15:34:04.579Z,99392.60
2023-03-15T15:36:35.491Z,99392.89
2023-03-15T15:39:06.613Z,99388.64
2023-03-15T15:41:35.735Z,99390.77
2023-03-15T15:44:18.372Z,99388.98
2023-03-15T15:46:47.719Z,99390.27
2023-03-15T15:49:16.820Z,99387.56
2023-03-15T15:51:47.037Z,99387.59
2023-03-15T15:54:21.017Z,99393.53
2023-03-15T15:56:53.590Z,99396.79
2023-03-15T15:59:22.011Z,99397.11
2023-03-15T16:02:00.017Z,99397.58
2023-03-15T16:04:30.331Z,99399.96
2023-03-15T16:07:02.553Z,99409.05
2023-03-15T16:09:32.736Z,99412.73
2023-03-15T16:12:02.871Z,99416.44
2023-03-15T16:14:32.477Z,99415.15
2023-03-15T16:17:01.401Z,99420.98
2023-03-15T16:19:31.073Z,99425.05
2023-03-15T16:21:59.457Z,99421.85
2023-03-15T16:24:30.288Z,99424.49
2023-03-15T16:27:03.064Z,99426.80
2023-03-15T16:29:43.284Z,99426.09
2023-03-15T16:32:20.863Z,99430.91
2023-03-15T16:34:55.144Z,99432.38
2023-03-15T16:37:29.181Z,99433.26
2023-03-15T16:39:57.495Z,99436.63
2023-03-15T16:42:26.258Z,99435.76
2023-03-15T16:44:55.131Z,99432.02
2023-03-15T16:47:23.719Z,99438.36
2023-03-15T16:49:53.533Z,99441.91
2023-03-15T16:52:21.822Z,99440.13
2023-03-15T16:54:50.199Z,99441.14
2023-03-15T16:57:21.999Z,99439.85
2023-03-15T16:59:51.121Z,99441.66
2023-03-15T17:02:21.605Z,99440.90
2023-03-15T17:04:49.768Z,99443.08
2023-03-15T17:07:18.077Z,99437.79
2023-03-15T17:09:47.252Z,99433.77
2023-03-15T17:12:24.029Z,99429.81
2023-03-15T17:14:55.357Z,99435.73
2023-03-15T17:17:24.836Z,99437.88
2023-03-15T17:19:53.395Z,99429.89
2023-03-15T17:22:22.268Z,99428.64
2023-03-15T17:24:51.168Z,99427.63
2023-03-15T17:27:30.724Z,99428.74
2023-03-15T17:29:59.037Z,99429.25
2023-03-15T17:32:27.362Z,99425.02
2023-03-15T17:34:59.166Z,99422.83
2023-03-15T17:37:27.410Z,99419.23
2023-03-15T17:39:56.861Z,99414.63
2023-03-15T17:42:25.201Z,99418.92
2023-03-15T17:44:54.399Z,99422.39
2023-03-15T17:47:22.675Z,99429.83
2023-03-15T17:49:51.491Z,99433.29
2023-03-15T17:52:21.189Z,99435.55
2023-03-15T17:54:49.567Z,99439.79
2023-03-15T17:57:18.548Z,99436.64
2023-03-15T17:59:47.032Z,99433.95
2023-03-15T18:02:16.069Z,99435.66
2023-03-15T18:04:44.246Z,99442.84
2023-03-15T18:07:14.970Z,99440.98
2023-03-15T18:09:43.247Z,99443.92
2023-03-15T18:12:13.195Z,99446.80
2023-03-15T18:14:42.601Z,99437.89
2023-03-15T18:17:11.604Z,99431.45
2023-03-15T18:19:42.005Z,99427.91
2023-03-15T18:22:14.891Z,99424.52
2023-03-15T18:24:47.076Z,99430.27
2023-03-15T18:27:15.630Z,99437.48
2023-03-15T18:29:48.483Z,99437.69
2023-03-15T18:32:17.015Z,99434.24
2023-03-15T18:34:45.474Z,99433.23
2023-03-15T18:37:15.314Z,99430.66
2023-03-15T18:39:44.006Z,99431.95
2023-03-15T18:42:13.103Z,99434.72
2023-03-15T18:44:44.056Z,99430.27
2023-03-15T18:47:12.222Z,99425.74
2023-03-15T18:49:45.349Z,99419.06
2023-03-15T18:52:15.273Z,99409.79
2023-03-15T18:54:45.665Z,99404.97
2023-03-15T18:57:13.942Z,99411.94
2023-03-15T18:59:42.223Z,99414.12
2023-03-15T19:02:11.161Z,99414.61
2023-03-15T19:04:39.404Z,99417.27
2023-03-15T19:07:10.447Z,99421.09
2023-03-15T19:09:39.239Z,99426.41
2023-03-15T19:12:07.833Z,99423.41
2023-03-15T19:14:37.761Z,99415.02
2023-03-15T19:17:06.855Z,99409.19
2023-03-15T19:19:35.232Z,99412.80
2023-03-15T19:22:06.368Z,99410.58
2023-03-15T19:24:36.423Z,99416.35
2023-03-15T19:27:04.878Z,99417.17
2023-03-15T19:29:33.225Z,99416.05
2023-03-15T19:32:01.337Z,99406.67
2023-03-15T19:34:33.521Z,99402.66
2023-03-15T19:37:01.901Z,99400.95
2023-03-15T19:39:29.990Z,99404.25
2023-03-15T19:41:58.289Z,99400.25
2023-03-15T19:44:27.501Z,99396.38
2023-03-15T19:46:59.313Z,99401.52
2023-03-15T19:49:27.707Z,99401.86
2023-03-15T19:51:55.837Z,99397.45
2023-03-15T19:54:24.768Z,99394.60
2023-03-15T19:56:54.687Z,99391.89
2023-03-15T19:59:22.854Z,99387.35
2023-03-15T20:01:51.471Z,99389.27
2023-03-15T20:04:19.842Z,99387.30
2023-03-15T20:06:49.062Z,99383.67
2023-03-15T20:09:17.223Z,99381.28
2023-03-15T20:11:49.388Z,99379.89
2023-03-15T20:14:21.975Z,99375.69
2023-03-15T20:16:50.463Z,99378.10
2023-03-15T20:19:23.722Z,99377.27
2023-03-15T20:21:52.344Z,99368.89
2023-03-15T20:24:20.727Z,99363.98
2023-03-15T20:26:51.978Z,99365.41
2023-03-15T20:29:22.538Z,99364.42
2023-03-15T20:31:53.502Z,99359.76
2023-03-15T20:34:22.346Z,99356.19
2023-03-15T20:36:52.807Z,99351.81
2023-03-15T20:39:24.245Z,99352.54
2023-03-15T20:41:54.101Z,99355.99
2023-03-15T20:44:22.429Z,99357.27
2023-03-15T20:46:55.203Z,99357.61
2023-03-15T20:49:23.810Z,99362.63
2023-03-15T20:51:52.079Z,99363.92
2023-03-15T20:54:21.088Z,99362.60
2023-03-15T20:56:49.662Z,99360.17
2023-03-15T20:59:18.193Z,99357.81
2023-03-15T21:01:49.525Z,99350.98
2023-03-15T21:04:18.204Z,99348.27
2023-03-15T21:06:46.366Z,99351.34
2023-03-15T21:09:15.013Z,99352.40
2023-03-15T21:11:43.239Z,99353.75
2023-03-15T21:14:11.836Z,99353.41
2023-03-15T21:16:41.498Z,99355.80
2023-03-15T21:19:09.763Z,99355.42
2023-03-15T21:21:43.543Z,99346.23
2023-03-15T21:24:12.562Z,99353.18
2023-03-15T21:26:44.093Z,99352.92
2023-03-15T21:29:13.888Z,99355.25
2023-03-15T21:31:42.246Z,99348.23
2023-03-15T21:34:10.643Z,99351.47
2023-03-15T21:36:39.544Z,99352.42
2023-03-15T21:39:08.546Z,99351.05
2023-03-15T21:41:39.260Z,99343.55
2023-03-15T21:44:07.659Z,99342.46
2023-03-15T21:46:36.553Z,99336.55
2023-03-15T21:49:07.046Z,99331.81
2023-03-15T21:51:35.361Z,99326.77
2023-03-15T21:54:09.277Z,99323.06
2023-03-15T21:56:37.640Z,99315.27
2023-03-15T21:59:06.041Z,99308.83
2023-03-15T22:01:36.444Z,99309.28
2023-03-15T22:04:04.691Z,99303.02
2023-03-15T22:06:35.199Z,99298.24
2023-03-15T22:09:04.514Z,99306.27
2023-03-15T22:11:32.972Z,99309.77
2023-03-15T22:14:01.046Z,99318.45
2023-03-15T22:16:30.144Z,99313.12
2023-03-15T22:18:59.263Z,99303.20
2023-03-15T22:21:27.427Z,99301.49
2023-03-15T22:23:55.611Z,99310.41
2023-03-15T22:26:26.524Z,99313.72
2023-03-15T22:28:54.997Z,99316.20
2023-03-15T22:31:23.314Z,99321.70
2023-03-15T22:33:54.056Z,99325.52
2023-03-15T22:36:23.154Z,99318.58
2023-03-15T22:38:54.503Z,99315.85
2023-03-15T22:41:24.231Z,99310.05
2023-03-15T22:43:55.340Z,99309.07
2023-03-15T22:46:23.738Z,99312.70
2023-03-15T22:48:51.852Z,99312.22
2023-03-15T22:51:21.957Z,99301.67
2023-03-15T22:53:50.073Z,99295.11
2023-03-15T22:56:18.243Z,99290.66
2023-03-15T22:58:47.512Z,99287.21
2023-03-15T23:01:15.999Z,99285.97
2023-03-15T23:03:44.391Z,99281.75
2023-03-15T23:06:13.272Z,99276.69
2023-03-15T23:08:42.795Z,99268.21
2023-03-15T23:11:11.788Z,99270.89
2023-03-15T23:13:40.068Z,99279.79
2023-03-15T23:16:10.435Z,99284.22
2023-03-15T23:18:40.111Z,99283.48
2023-03-15T23:21:09.957Z,99285.73
2023-03-15T23:23:43.120Z,99276.20
2023-03-15T23:26:13.080Z,99273.35
2023-03-15T23:28:43.791Z,99272.02
2023-03-15T23:31:12.099Z,99268.70
2023-03-15T23:33:40.349Z,99264.14
2023-03-15T23:36:08.931Z,99267.74
2023-03-15T23:38:37.406Z,99265.55
2023-03-15T23:41:09.687Z,99263.09
2023-03-15T23:43:38.444Z,99258.71
2023-03-15T23:46:06.743Z,99260.92
2023-03-15T23:48:36.476Z,99256.65
2023-03-15T23:51:05.052Z,99256.25
2023-03-15T23:53:36.076Z,99263.34
2023-03-15T23:56:05.556Z,99260.34
2023-03-15T23:58:34.003Z,99255.27
